createdAt,value
2023-12-20T00:00:54.638Z,5.60
2023-12-20T00:05:56.705Z,5.43
2023-12-20T00:10:58.453Z,5.48
2023-12-20T00:16:00.373Z,5.35
2023-12-20T00:21:02.042Z,5.28
2023-12-20T00:26:03.888Z,5.27
2023-12-20T00:31:06.087Z,5.22
2023-12-20T00:36:07.840Z,5.21
2023-12-20T00:41:09.534Z,5.14
2023-12-20T00:46:11.336Z,4.98
2023-12-20T00:51:13.127Z,4.97
2023-12-20T00:56:14.845Z,4.94
2023-12-20T01:01:16.763Z,4.88
2023-12-20T01:06:18.556Z,4.92
2023-12-20T01:11:20.243Z,4.81
2023-12-20T01:16:22.085Z,4.85
2023-12-20T01:21:24.930Z,4.79
2023-12-20T01:26:26.566Z,4.79
2023-12-20T01:31:28.641Z,4.74
2023-12-20T01:36:30.411Z,4.77
2023-12-20T01:41:32.176Z,4.60
2023-12-20T01:46:34.035Z,4.68
2023-12-20T01:51:36.979Z,4.71
2023-12-20T01:56:40.366Z,4.64
2023-12-20T02:01:42.236Z,4.63
2023-12-20T02:06:47.225Z,4.53
2023-12-20T02:11:49.081Z,4.61
2023-12-20T02:16:50.789Z,4.55
2023-12-20T02:22:06.349Z,4.45
2023-12-20T02:27:09.085Z,4.49
2023-12-20T02:32:10.779Z,4.48
2023-12-20T02:37:12.679Z,4.50
2023-12-20T02:42:14.549Z,4.47
2023-12-20T02:47:16.214Z,4.46
2023-12-20T02:52:17.970Z,4.37
2023-12-20T02:57:19.698Z,4.45
2023-12-20T03:02:21.335Z,4.41
2023-12-20T03:07:23.071Z,4.45
2023-12-20T03:12:24.812Z,4.38
2023-12-20T03:17:26.511Z,4.39
2023-12-20T03:22:28.209Z,4.40
2023-12-20T03:27:29.860Z,4.39
2023-12-20T03:32:31.724Z,4.32
2023-12-20T03:37:33.389Z,4.40
2023-12-20T03:42:35.010Z,4.37
2023-12-20T03:47:36.649Z,4.39
2023-12-20T03:52:38.409Z,4.30
2023-12-20T03:57:40.061Z,4.36
2023-12-20T04:02:42.874Z,4.41
2023-12-20T04:07:45.193Z,4.32
2023-12-20T04:12:47.037Z,4.36
2023-12-20T04:17:49.235Z,4.38
2023-12-20T04:22:51.069Z,4.35
2023-12-20T04:27:52.804Z,4.40
2023-12-20T04:32:54.575Z,4.44
2023-12-20T04:37:56.368Z,4.42
2023-12-20T04:42:58.121Z,4.53
2023-12-20T04:47:59.853Z,4.42
2023-12-20T04:53:01.596Z,4.44
2023-12-20T04:58:03.311Z,4.43
2023-12-20T05:03:05.355Z,4.52
2023-12-20T05:08:07.473Z,4.52
2023-12-20T05:13:09.486Z,4.51
2023-12-20T05:18:11.287Z,4.50
2023-12-20T05:23:14.358Z,4.53
2023-12-20T05:28:16.705Z,4.55
2023-12-20T05:33:18.482Z,4.50
2023-12-20T05:38:20.137Z,4.52
2023-12-20T05:43:21.798Z,4.59
2023-12-20T05:48:23.808Z,4.53
2023-12-20T05:53:25.697Z,4.58
2023-12-20T05:58:27.403Z,4.66
2023-12-20T06:03:29.046Z,4.70
2023-12-20T06:08:30.688Z,4.75
2023-12-20T06:13:32.577Z,4.67
2023-12-20T06:18:34.320Z,4.66
2023-12-20T06:23:36.019Z,4.72
2023-12-20T06:28:40.656Z,4.68
2023-12-20T06:33:44.747Z,4.77
2023-12-20T06:38:47.331Z,4.85
2023-12-20T06:43:50.576Z,4.77
2023-12-20T06:48:52.721Z,4.88
2023-12-20T06:53:54.468Z,4.88
2023-12-20T06:58:56.092Z,4.85
2023-12-20T07:03:57.822Z,4.98
2023-12-20T07:08:59.523Z,4.99
2023-12-20T07:14:02.374Z,4.90
2023-12-20T07:19:04.394Z,4.83
2023-12-20T07:24:06.337Z,4.76
2023-12-20T07:29:08.081Z,4.97
2023-12-20T07:34:09.903Z,4.90
2023-12-20T07:39:11.674Z,5.02
2023-12-20T07:44:13.346Z,5.01
2023-12-20T07:49:15.221Z,5.00
2023-12-20T07:54:17.276Z,5.00
2023-12-20T07:59:25.668Z,4.91
2023-12-20T08:09:37.849Z,4.85
2023-12-20T08:14:39.527Z,4.83
2023-12-20T08:19:41.279Z,4.92
2023-12-20T08:24:43.080Z,5.15
2023-12-20T08:29:46.619Z,5.15
2023-12-20T08:34:50.983Z,5.33
2023-12-20T08:39:52.810Z,5.39
2023-12-20T08:44:54.524Z,5.29
2023-12-20T08:50:01.194Z,5.49
2023-12-20T08:55:03.138Z,5.53
2023-12-20T09:00:07.821Z,5.61
2023-12-20T09:05:10.173Z,5.66
2023-12-20T09:10:12.058Z,5.78
2023-12-20T09:15:14.102Z,5.80
2023-12-20T09:20:16.339Z,6.06
2023-12-20T09:25:19.017Z,6.04
2023-12-20T09:30:26.849Z,6.05
2023-12-20T09:35:29.797Z,6.05
2023-12-20T09:40:34.102Z,6.10
2023-12-20T09:45:35.815Z,5.90
2023-12-20T09:50:37.888Z,5.87
2023-12-20T09:55:42.043Z,5.82
2023-12-20T10:00:43.794Z,5.87
2023-12-20T10:05:46.010Z,5.88
2023-12-20T10:10:48.726Z,5.90
2023-12-20T10:15:50.958Z,5.82
2023-12-20T10:20:53.116Z,5.94
2023-12-20T10:26:01.122Z,6.00
2023-12-20T10:31:02.883Z,6.06
2023-12-20T10:36:05.219Z,5.99
2023-12-20T10:41:07.127Z,6.13
2023-12-20T10:46:09.422Z,6.24
2023-12-20T10:51:12.207Z,6.25
2023-12-20T10:56:18.199Z,6.25
2023-12-20T11:01:21.289Z,6.20
2023-12-20T11:06:55.794Z,6.51
2023-12-20T11:12:09.406Z,7.73
2023-12-20T11:17:15.375Z,7.61
2023-12-20T11:22:17.228Z,6.99
2023-12-20T11:27:20.082Z,6.97
2023-12-20T11:32:34.002Z,7.17
2023-12-20T11:37:39.571Z,6.62
2023-12-20T11:42:50.517Z,6.46
2023-12-20T11:47:54.484Z,6.47
2023-12-20T11:52:56.503Z,6.62
2023-12-20T11:57:58.267Z,7.07
2023-12-20T12:03:00.364Z,7.04
2023-12-20T12:08:04.283Z,7.25
2023-12-20T12:13:06.959Z,7.34
2023-12-20T12:18:08.815Z,7.16
2023-12-20T12:23:10.568Z,7.36
2023-12-20T12:28:12.433Z,7.07
2023-12-20T12:33:14.300Z,6.79
2023-12-20T12:38:16.934Z,6.68
2023-12-20T12:43:18.619Z,6.65
2023-12-20T12:48:20.532Z,6.57
2023-12-20T12:53:22.262Z,6.42
2023-12-20T12:58:24.142Z,6.29
2023-12-20T13:03:25.824Z,6.28
2023-12-20T13:08:27.558Z,6.34
2023-12-20T13:13:29.832Z,6.38
2023-12-20T13:18:31.730Z,6.36
2023-12-20T13:23:33.545Z,6.36
2023-12-20T13:28:35.323Z,6.37
2023-12-20T13:33:37.245Z,6.48
2023-12-20T13:38:39.080Z,6.52
2023-12-20T13:43:40.708Z,6.40
2023-12-20T13:48:42.671Z,6.38
2023-12-20T13:53:44.284Z,6.26
2023-12-20T13:58:47.692Z,6.12
2023-12-20T14:03:49.508Z,6.17
2023-12-20T14:08:51.194Z,6.15
2023-12-20T14:13:52.820Z,6.38
2023-12-20T14:18:58.480Z,6.26
2023-12-20T14:24:00.219Z,6.29
2023-12-20T14:29:01.852Z,6.27
2023-12-20T14:34:05.131Z,6.23
2023-12-20T14:39:06.981Z,6.10
2023-12-20T14:44:08.759Z,6.00
2023-12-20T14:49:10.557Z,6.12
2023-12-20T14:54:12.324Z,6.12
2023-12-20T14:59:14.657Z,6.17
2023-12-20T15:04:16.328Z,6.10
2023-12-20T15:09:17.945Z,6.06
2023-12-20T15:14:21.056Z,6.03
2023-12-20T15:19:23.217Z,5.91
2023-12-20T15:24:29.667Z,6.03
2023-12-20T15:29:32.148Z,5.92
2023-12-20T15:34:34.004Z,5.96
2023-12-20T15:39:35.756Z,5.89
2023-12-20T15:44:37.888Z,6.00
2023-12-20T15:49:39.732Z,6.11
2023-12-20T15:54:42.761Z,5.99
2023-12-20T15:59:44.597Z,6.02
2023-12-20T16:04:46.648Z,6.09
2023-12-20T16:09:48.329Z,6.05
2023-12-20T16:14:49.968Z,6.02
2023-12-20T16:19:52.757Z,5.89
2023-12-20T16:24:54.758Z,5.99
2023-12-20T16:29:56.430Z,5.99
2023-12-20T16:34:58.431Z,5.95
2023-12-20T16:40:00.073Z,5.98
2023-12-20T16:45:01.961Z,5.91
2023-12-20T16:50:06.929Z,5.81
2023-12-20T16:55:10.806Z,5.95
2023-12-20T17:00:13.136Z,5.95
2023-12-20T17:05:15.127Z,5.91
2023-12-20T17:10:16.826Z,5.84
2023-12-20T17:15:18.498Z,5.85
2023-12-20T17:20:20.192Z,5.87
2023-12-20T17:25:23.089Z,5.78
2023-12-20T17:30:24.819Z,5.66
2023-12-20T17:35:26.478Z,5.47
2023-12-20T17:40:28.161Z,5.32
2023-12-20T17:45:29.818Z,5.44
2023-12-20T17:50:32.273Z,5.39
2023-12-20T17:55:34.166Z,5.25
2023-12-20T18:00:36.553Z,5.18
2023-12-20T18:05:38.238Z,5.15
2023-12-20T18:10:40.073Z,5.01
2023-12-20T18:15:41.804Z,4.96
2023-12-20T18:20:43.666Z,4.83
2023-12-20T18:25:45.516Z,4.79
2023-12-20T18:30:47.320Z,4.75
2023-12-20T18:35:49.020Z,4.66
2023-12-20T18:40:50.800Z,4.70
2023-12-20T18:45:53.744Z,4.59
2023-12-20T18:50:55.668Z,4.68
2023-12-20T18:55:57.384Z,4.66
2023-12-20T19:01:01.532Z,4.71
2023-12-20T19:06:04.082Z,4.58
2023-12-20T19:11:05.787Z,4.71
2023-12-20T19:16:07.728Z,4.50
2023-12-20T19:21:09.591Z,4.61
2023-12-20T19:26:13.318Z,4.61
2023-12-20T19:31:15.567Z,4.88
2023-12-20T19:36:17.527Z,4.69
2023-12-20T19:41:19.359Z,4.71
2023-12-20T19:46:21.184Z,4.64
2023-12-20T19:51:25.938Z,4.75
2023-12-20T19:56:27.712Z,4.94
2023-12-20T20:01:29.902Z,4.86
2023-12-20T20:06:31.733Z,4.80
2023-12-20T20:11:35.663Z,4.81
2023-12-20T20:16:37.837Z,4.92
2023-12-20T20:21:39.565Z,4.89
2023-12-20T20:26:41.274Z,4.97
2023-12-20T20:31:43.085Z,5.00
2023-12-20T20:36:44.772Z,5.07
2023-12-20T20:41:46.594Z,5.09
2023-12-20T20:46:50.007Z,5.19
2023-12-20T20:51:52.388Z,5.26
2023-12-20T20:56:54.188Z,5.28
2023-12-20T21:01:56.418Z,5.24
2023-12-20T21:06:58.446Z,5.13
2023-12-20T21:12:00.141Z,5.18
2023-12-20T21:17:01.873Z,5.17
2023-12-20T21:22:03.813Z,5.17
2023-12-20T21:27:05.712Z,5.21
2023-12-20T21:32:07.389Z,5.26
2023-12-20T21:37:09.021Z,5.32
2023-12-20T21:42:11.140Z,5.47
2023-12-20T21:47:12.901Z,5.54
2023-12-20T21:52:17.340Z,5.51
2023-12-20T21:57:21.164Z,5.54
2023-12-20T22:02:22.925Z,5.66
2023-12-20T22:07:24.667Z,5.72
2023-12-20T22:12:26.442Z,5.75
2023-12-20T22:17:28.169Z,5.67
2023-12-20T22:22:30.787Z,5.67
2023-12-20T22:27:32.538Z,5.81
2023-12-20T22:32:34.348Z,5.73
2023-12-20T22:37:36.294Z,5.73
2023-12-20T22:42:37.979Z,5.71
2023-12-20T22:47:40.723Z,5.77
2023-12-20T22:52:42.462Z,5.64
2023-12-20T22:57:44.339Z,5.71
2023-12-20T23:02:46.344Z,5.75
2023-12-20T23:07:48.672Z,5.82
2023-12-20T23:12:50.944Z,5.82
2023-12-20T23:17:54.239Z,5.80
2023-12-20T23:22:56.053Z,5.87
2023-12-20T23:27:57.723Z,5.87
2023-12-20T23:32:59.979Z,5.86
2023-12-20T23:38:03.057Z,5.94
2023-12-20T23:43:05.035Z,5.96
2023-12-20T23:48:06.679Z,5.92
2023-12-20T23:53:09.545Z,5.89
2023-12-20T23:58:12.880Z,5.86
